sensor_id;sensor_type;location;lat;lon;timestamp;pressure;altitude;pressure_sealevel;temperature;humidity
60228;BME280;46091;46.512;6.626;2023-06-14T04:07:27;96261.06;;;22.56;33.25
60228;BME280;46091;46.512;6.626;2023-06-14T04:09:31;96263.53;;;22.82;32.92
60228;BME280;46091;46.512;6.626;2023-06-14T04:11:34;96256.59;;;23.05;32.72
60228;BME280;46091;46.512;6.626;2023-06-14T04:13:36;96263.16;;;23.22;32.44
60228;BME280;46091;46.512;6.626;2023-06-14T04:15:40;96270.28;;;23.37;32.59
60228;BME280;46091;46.512;6.626;2023-06-14T04:17:45;96277.97;;;23.49;32.56
60228;BME280;46091;46.512;6.626;2023-06-14T04:19:48;96275.44;;;23.58;32.12
60228;BME280;46091;46.512;6.626;2023-06-14T04:21:51;96279.41;;;23.65;32.09
60228;BME280;46091;46.512;6.626;2023-06-14T04:23:55;96275.56;;;23.71;31.95
60228;BME280;46091;46.512;6.626;2023-06-14T04:25:58;96279.28;;;23.75;32.06
60228;BME280;46091;46.512;6.626;2023-06-14T04:28:04;96279.25;;;23.80;32.30
60228;BME280;46091;46.512;6.626;2023-06-14T04:30:09;96289.44;;;23.84;31.73
60228;BME280;46091;46.512;6.626;2023-06-14T04:32:12;96285.06;;;23.88;31.77
60228;BME280;46091;46.512;6.626;2023-06-14T04:34:16;96281.28;;;23.89;32.19
60228;BME280;46091;46.512;6.626;2023-06-14T04:36:19;96283.41;;;23.92;32.00
60228;BME280;46091;46.512;6.626;2023-06-14T04:38:22;96281.81;;;23.91;31.69
60228;BME280;46091;46.512;6.626;2023-06-14T04:40:28;96288.81;;;23.92;32.11
60228;BME280;46091;46.512;6.626;2023-06-14T04:42:31;96289.09;;;23.90;31.89
60228;BME280;46091;46.512;6.626;2023-06-14T04:44:34;96289.09;;;23.90;31.55
60228;BME280;46091;46.512;6.626;2023-06-14T04:46:37;96289.59;;;23.92;31.41
60228;BME280;46091;46.512;6.626;2023-06-14T04:48:47;96292.59;;;23.91;31.68
60228;BME280;46091;46.512;6.626;2023-06-14T04:50:52;96293.66;;;23.90;31.78
60228;BME280;46091;46.512;6.626;2023-06-14T04:52:55;96296.91;;;23.92;31.37
60228;BME280;46091;46.512;6.626;2023-06-14T04:54:58;96294.22;;;23.92;31.35
60228;BME280;46091;46.512;6.626;2023-06-14T04:57:03;96297.72;;;23.92;31.25
60228;BME280;46091;46.512;6.626;2023-06-14T04:59:07;96299.00;;;23.95;31.59
60228;BME280;46091;46.512;6.626;2023-06-14T05:01:10;96291.44;;;23.97;31.28
60228;BME280;46091;46.512;6.626;2023-06-14T05:03:14;96300.31;;;23.97;31.53
60228;BME280;46091;46.512;6.626;2023-06-14T05:05:17;96294.63;;;23.99;31.58
60228;BME280;46091;46.512;6.626;2023-06-14T05:07:22;96307.03;;;24.00;31.15
60228;BME280;46091;46.512;6.626;2023-06-14T05:09:25;96301.38;;;24.01;31.08
60228;BME280;46091;46.512;6.626;2023-06-14T05:11:28;96303.25;;;24.01;31.43
60228;BME280;46091;46.512;6.626;2023-06-14T05:13:32;96303.53;;;23.99;31.10
60228;BME280;46091;46.512;6.626;2023-06-14T05:15:36;96300.53;;;24.01;31.04
60228;BME280;46091;46.512;6.626;2023-06-14T05:17:39;96311.59;;;24.04;31.21
60228;BME280;46091;46.512;6.626;2023-06-14T05:19:42;96302.09;;;24.07;31.32
60228;BME280;46091;46.512;6.626;2023-06-14T05:21:45;96309.59;;;24.10;31.41
60228;BME280;46091;46.512;6.626;2023-06-14T05:23:49;96306.03;;;24.15;31.51
60228;BME280;46091;46.512;6.626;2023-06-14T05:25:52;96301.38;;;24.20;31.25
60228;BME280;46091;46.512;6.626;2023-06-14T05:27:55;96306.66;;;24.30;31.26
60228;BME280;46091;46.512;6.626;2023-06-14T05:29:59;96302.19;;;24.39;30.93
60228;BME280;46091;46.512;6.626;2023-06-14T05:32:03;96307.44;;;24.50;31.49
60228;BME280;46091;46.512;6.626;2023-06-14T05:34:06;96303.50;;;24.61;31.32
60228;BME280;46091;46.512;6.626;2023-06-14T05:36:09;96303.53;;;24.75;30.96
60228;BME280;46091;46.512;6.626;2023-06-14T05:38:12;96309.09;;;24.83;30.93
60228;BME280;46091;46.512;6.626;2023-06-14T05:40:15;96311.91;;;24.92;31.09
60228;BME280;46091;46.512;6.626;2023-06-14T05:42:18;96315.31;;;24.97;30.95
60228;BME280;46091;46.512;6.626;2023-06-14T05:44:21;96309.84;;;25.03;30.87
60228;BME280;46091;46.512;6.626;2023-06-14T05:46:26;96313.59;;;25.07;31.26
60228;BME280;46091;46.512;6.626;2023-06-14T05:48:30;96313.47;;;25.12;31.24
60228;BME280;46091;46.512;6.626;2023-06-14T05:50:34;96316.69;;;25.14;31.11
60228;BME280;46091;46.512;6.626;2023-06-14T05:52:37;96313.41;;;25.17;31.00
60228;BME280;46091;46.512;6.626;2023-06-14T05:54:39;96324.13;;;25.22;31.51
60228;BME280;46091;46.512;6.626;2023-06-14T05:56:43;96325.16;;;25.26;31.32
60228;BME280;46091;46.512;6.626;2023-06-14T05:58:46;96323.75;;;25.29;31.22
60228;BME280;46091;46.512;6.626;2023-06-14T06:00:50;96323.13;;;25.32;31.42
60228;BME280;46091;46.512;6.626;2023-06-14T06:02:56;96324.94;;;25.36;31.37
60228;BME280;46091;46.512;6.626;2023-06-14T06:04:59;96322.75;;;25.38;31.13
60228;BME280;46091;46.512;6.626;2023-06-14T06:07:02;96334.56;;;25.42;31.39
60228;BME280;46091;46.512;6.626;2023-06-14T06:09:07;96328.56;;;25.45;31.73
60228;BME280;46091;46.512;6.626;2023-06-14T06:11:10;96331.19;;;25.50;31.63
60228;BME280;46091;46.512;6.626;2023-06-14T06:13:13;96329.78;;;25.53;31.22
60228;BME280;46091;46.512;6.626;2023-06-14T06:15:16;96337.78;;;25.58;31.55
60228;BME280;46091;46.512;6.626;2023-06-14T06:17:20;96337.41;;;25.65;31.27
60228;BME280;46091;46.512;6.626;2023-06-14T06:19:25;96344.63;;;25.69;31.25
60228;BME280;46091;46.512;6.626;2023-06-14T06:21:28;96341.06;;;25.74;31.16
60228;BME280;46091;46.512;6.626;2023-06-14T06:23:31;96338.22;;;25.79;31.43
60228;BME280;46091;46.512;6.626;2023-06-14T06:25:34;96347.88;;;25.85;30.99
60228;BME280;46091;46.512;6.626;2023-06-14T06:27:37;96345.34;;;25.89;31.27
60228;BME280;46091;46.512;6.626;2023-06-14T06:29:42;96344.75;;;25.92;31.31
60228;BME280;46091;46.512;6.626;2023-06-14T06:31:45;96344.44;;;25.93;31.11
60228;BME280;46091;46.512;6.626;2023-06-14T06:33:49;96339.31;;;25.92;31.18
60228;BME280;46091;46.512;6.626;2023-06-14T06:35:53;96348.78;;;25.94;30.95
60228;BME280;46091;46.512;6.626;2023-06-14T06:37:56;96346.06;;;25.94;30.90
60228;BME280;46091;46.512;6.626;2023-06-14T06:39:58;96352.28;;;25.95;30.84
60228;BME280;46091;46.512;6.626;2023-06-14T06:42:01;96343.34;;;25.94;30.84
60228;BME280;46091;46.512;6.626;2023-06-14T06:44:04;96353.66;;;25.92;31.13
60228;BME280;46091;46.512;6.626;2023-06-14T06:46:08;96352.38;;;25.90;30.80
60228;BME280;46091;46.512;6.626;2023-06-14T06:48:11;96349.34;;;25.91;30.91
60228;BME280;46091;46.512;6.626;2023-06-14T06:50:14;96345.84;;;25.91;31.29
60228;BME280;46091;46.512;6.626;2023-06-14T06:52:18;96347.75;;;25.90;30.90
60228;BME280;46091;46.512;6.626;2023-06-14T06:54:21;96345.53;;;25.92;30.94
60228;BME280;46091;46.512;6.626;2023-06-14T06:56:24;96350.38;;;25.95;31.10
60228;BME280;46091;46.512;6.626;2023-06-14T06:58:27;96348.47;;;25.96;30.86
60228;BME280;46091;46.512;6.626;2023-06-14T07:00:32;96355.78;;;25.95;30.95
60228;BME280;46091;46.512;6.626;2023-06-14T07:02:35;96347.66;;;25.95;31.31
60228;BME280;46091;46.512;6.626;2023-06-14T07:04:39;96349.56;;;25.95;31.25
60228;BME280;46091;46.512;6.626;2023-06-14T07:06:42;96354.28;;;25.89;31.36
60228;BME280;46091;46.512;6.626;2023-06-14T07:08:47;96353.88;;;25.82;31.16
60228;BME280;46091;46.512;6.626;2023-06-14T07:10:50;96358.59;;;25.76;31.38
60228;BME280;46091;46.512;6.626;2023-06-14T07:12:53;96355.69;;;25.73;31.25
60228;BME280;46091;46.512;6.626;2023-06-14T07:14:57;96360.06;;;25.69;31.75
60228;BME280;46091;46.512;6.626;2023-06-14T07:17:00;96359.56;;;25.67;31.55
60228;BME280;46091;46.512;6.626;2023-06-14T07:19:03;96353.16;;;25.63;31.46
60228;BME280;46091;46.512;6.626;2023-06-14T07:21:07;96353.84;;;25.54;31.43
60228;BME280;46091;46.512;6.626;2023-06-14T07:23:09;96361.25;;;25.49;31.78
60228;BME280;46091;46.512;6.626;2023-06-14T07:25:14;96355.03;;;25.48;31.44
60228;BME280;46091;46.512;6.626;2023-06-14T07:27:18;96366.16;;;25.47;31.70
60228;BME280;46091;46.512;6.626;2023-06-14T07:29:21;96364.53;;;25.46;31.29
60228;BME280;46091;46.512;6.626;2023-06-14T07:31:24;96368.34;;;25.45;31.55
60228;BME280;46091;46.512;6.626;2023-06-14T07:33:28;96364.03;;;25.44;31.79
60228;BME280;46091;46.512;6.626;2023-06-14T07:35:31;96375.16;;;25.29;31.76
60228;BME280;46091;46.512;6.626;2023-06-14T07:37:34;96375.69;;;25.12;31.80
60228;BME280;46091;46.512;6.626;2023-06-14T07:39:38;96375.06;;;25.01;31.72
60228;BME280;46091;46.512;6.626;2023-06-14T07:41:42;96369.41;;;24.97;31.74
60228;BME280;46091;46.512;6.626;2023-06-14T07:43:45;96375.78;;;25.07;31.53
60228;BME280;46091;46.512;6.626;2023-06-14T07:45:48;96369.19;;;25.13;31.64
60228;BME280;46091;46.512;6.626;2023-06-14T07:48:04;96375.91;;;25.15;31.66
60228;BME280;46091;46.512;6.626;2023-06-14T07:50:07;96387.00;;;25.14;31.17
60228;BME280;46091;46.512;6.626;2023-06-14T07:52:11;96369.97;;;25.13;31.64
60228;BME280;46091;46.512;6.626;2023-06-14T07:54:15;96374.59;;;25.13;31.22
60228;BME280;46091;46.512;6.626;2023-06-14T07:56:18;96372.41;;;25.15;30.99
60228;BME280;46091;46.512;6.626;2023-06-14T07:58:22;96374.81;;;25.16;31.36
60228;BME280;46091;46.512;6.626;2023-06-14T08:00:25;96374.00;;;25.16;31.37
60228;BME280;46091;46.512;6.626;2023-06-14T08:02:29;96364.38;;;25.10;31.36
60228;BME280;46091;46.512;6.626;2023-06-14T08:04:32;96367.88;;;25.10;31.41
60228;BME280;46091;46.512;6.626;2023-06-14T08:06:35;96369.19;;;25.13;31.67
60228;BME280;46091;46.512;6.626;2023-06-14T08:08:41;96361.59;;;25.15;31.03
60228;BME280;46091;46.512;6.626;2023-06-14T08:10:44;96362.91;;;25.17;31.05
60228;BME280;46091;46.512;6.626;2023-06-14T08:12:48;96363.69;;;25.18;31.20
60228;BME280;46091;46.512;6.626;2023-06-14T08:14:53;96365.81;;;25.21;31.13
60228;BME280;46091;46.512;6.626;2023-06-14T08:17:14;96367.41;;;25.22;31.65
60228;BME280;46091;46.512;6.626;2023-06-14T08:19:17;96366.59;;;25.21;31.35
60228;BME280;46091;46.512;6.626;2023-06-14T08:21:21;96373.41;;;25.19;31.51
60228;BME280;46091;46.512;6.626;2023-06-14T08:23:24;96375.63;;;25.17;31.60
60228;BME280;46091;46.512;6.626;2023-06-14T08:25:27;96377.53;;;25.16;31.30
60228;BME280;46091;46.512;6.626;2023-06-14T08:27:30;96382.63;;;25.18;31.83
60228;BME280;46091;46.512;6.626;2023-06-14T08:29:33;96380.72;;;25.18;31.67
60228;BME280;46091;46.512;6.626;2023-06-14T08:31:38;96379.63;;;25.19;31.96
60228;BME280;46091;46.512;6.626;2023-06-14T08:33:41;96388.84;;;25.18;32.05
60228;BME280;46091;46.512;6.626;2023-06-14T08:35:45;96382.63;;;25.18;32.04
60228;BME280;46091;46.512;6.626;2023-06-14T08:37:49;96386.94;;;25.19;32.22
60228;BME280;46091;46.512;6.626;2023-06-14T08:39:52;96386.63;;;25.20;32.19
60228;BME280;46091;46.512;6.626;2023-06-14T08:41:56;96382.03;;;25.21;31.97
60228;BME280;46091;46.512;6.626;2023-06-14T08:44:00;96385.25;;;25.23;32.18
60228;BME280;46091;46.512;6.626;2023-06-14T08:46:04;96379.03;;;25.22;32.55
60228;BME280;46091;46.512;6.626;2023-06-14T08:48:14;96379.03;;;25.22;32.34
60228;BME280;46091;46.512;6.626;2023-06-14T08:50:20;96383.03;;;25.25;32.75
60228;BME280;46091;46.512;6.626;2023-06-14T08:52:33;96375.44;;;25.27;32.42
60228;BME280;46091;46.512;6.626;2023-06-14T08:54:42;96383.25;;;25.29;32.43
60228;BME280;46091;46.512;6.626;2023-06-14T08:56:46;96384.06;;;25.29;32.72
60228;BME280;46091;46.512;6.626;2023-06-14T08:58:49;96384.88;;;25.30;32.53
60228;BME280;46091;46.512;6.626;2023-06-14T09:00:52;96389.47;;;25.29;32.76
60228;BME280;46091;46.512;6.626;2023-06-14T09:02:56;96387.38;;;25.26;32.54
60228;BME280;46091;46.512;6.626;2023-06-14T09:05:01;96386.53;;;25.25;32.54
60228;BME280;46091;46.512;6.626;2023-06-14T09:07:05;96390.06;;;25.26;32.70
60228;BME280;46091;46.512;6.626;2023-06-14T09:09:09;96388.97;;;25.27;32.78
60228;BME280;46091;46.512;6.626;2023-06-14T09:11:13;96384.66;;;25.26;32.66
60228;BME280;46091;46.512;6.626;2023-06-14T09:13:17;96382.47;;;25.28;32.80
60228;BME280;46091;46.512;6.626;2023-06-14T09:15:22;96385.66;;;25.30;32.59
60228;BME280;46091;46.512;6.626;2023-06-14T09:17:25;96382.66;;;25.32;32.91
60228;BME280;46091;46.512;6.626;2023-06-14T09:19:28;96386.16;;;25.32;32.71
60228;BME280;46091;46.512;6.626;2023-06-14T09:21:35;96383.47;;;25.32;32.52
60228;BME280;46091;46.512;6.626;2023-06-14T09:23:40;96382.84;;;25.35;32.63
60228;BME280;46091;46.512;6.626;2023-06-14T09:25:45;96390.69;;;25.37;32.47
60228;BME280;46091;46.512;6.626;2023-06-14T09:27:48;96387.69;;;25.38;32.69
60228;BME280;46091;46.512;6.626;2023-06-14T09:29:51;96385.78;;;25.39;32.96
60228;BME280;46091;46.512;6.626;2023-06-14T09:31:54;96381.50;;;25.38;32.68
60228;BME280;46091;46.512;6.626;2023-06-14T09:34:02;96381.50;;;25.38;32.93
60228;BME280;46091;46.512;6.626;2023-06-14T09:36:10;96379.06;;;25.36;32.94
60228;BME280;46091;46.512;6.626;2023-06-14T09:38:14;96381.50;;;25.38;32.64
60228;BME280;46091;46.512;6.626;2023-06-14T09:40:20;96388.19;;;25.40;32.90
60228;BME280;46091;46.512;6.626;2023-06-14T09:42:23;96382.78;;;25.40;32.83
60228;BME280;46091;46.512;6.626;2023-06-14T09:44:27;96384.38;;;25.41;32.92
60228;BME280;46091;46.512;6.626;2023-06-14T09:46:31;96388.69;;;25.42;32.57
60228;BME280;46091;46.512;6.626;2023-06-14T09:48:34;96388.69;;;25.42;32.48
60228;BME280;46091;46.512;6.626;2023-06-14T09:50:39;96382.28;;;25.38;32.83
60228;BME280;46091;46.512;6.626;2023-06-14T09:52:43;96386.59;;;25.39;32.88
60228;BME280;46091;46.512;6.626;2023-06-14T09:54:48;96384.69;;;25.40;33.01
60228;BME280;46091;46.512;6.626;2023-06-14T09:56:52;96382.00;;;25.40;32.89
60228;BME280;46091;46.512;6.626;2023-06-14T09:58:56;96380.09;;;25.40;33.10
60228;BME280;46091;46.512;6.626;2023-06-14T10:01:08;96384.38;;;25.41;32.91
60228;BME280;46091;46.512;6.626;2023-06-14T10:03:21;96382.19;;;25.43;33.17
60228;BME280;46091;46.512;6.626;2023-06-14T10:05:27;96387.28;;;25.45;33.06
60228;BME280;46091;46.512;6.626;2023-06-14T10:07:35;96388.59;;;25.47;33.10
60228;BME280;46091;46.512;6.626;2023-06-14T10:09:41;96388.03;;;25.50;33.09
60228;BME280;46091;46.512;6.626;2023-06-14T10:11:51;96388.03;;;25.50;32.66
60228;BME280;46091;46.512;6.626;2023-06-14T10:13:55;96393.44;;;25.50;32.93
60228;BME280;46091;46.512;6.626;2023-06-14T10:16:07;96388.03;;;25.50;32.80
60228;BME280;46091;46.512;6.626;2023-06-14T10:18:20;96386.91;;;25.51;32.74
60228;BME280;46091;46.512;6.626;2023-06-14T10:20:30;96392.31;;;25.51;32.88
60228;BME280;46091;46.512;6.626;2023-06-14T10:22:35;96394.72;;;25.53;32.83
60228;BME280;46091;46.512;6.626;2023-06-14T10:24:42;96375.97;;;25.57;33.06
60228;BME280;46091;46.512;6.626;2023-06-14T10:26:54;96378.38;;;25.58;32.83
60228;BME280;46091;46.512;6.626;2023-06-14T10:29:07;96379.72;;;25.61;32.85
60228;BME280;46091;46.512;6.626;2023-06-14T10:31:11;96382.91;;;25.63;33.06
60228;BME280;46091;46.512;6.626;2023-06-14T10:33:15;96382.91;;;25.63;32.72
60228;BME280;46091;46.512;6.626;2023-06-14T10:35:18;96385.94;;;25.61;33.06
60228;BME280;46091;46.512;6.626;2023-06-14T10:37:21;96379.72;;;25.61;33.18
60228;BME280;46091;46.512;6.626;2023-06-14T10:39:24;96386.72;;;25.62;32.72
60228;BME280;46091;46.512;6.626;2023-06-14T10:41:28;96386.72;;;25.62;32.98
60228;BME280;46091;46.512;6.626;2023-06-14T10:43:33;96382.13;;;25.62;32.87
60228;BME280;46091;46.512;6.626;2023-06-14T10:45:36;96381.31;;;25.62;32.91
60228;BME280;46091;46.512;6.626;2023-06-14T10:47:39;96377.81;;;25.61;33.04
60228;BME280;46091;46.512;6.626;2023-06-14T10:49:44;96381.31;;;25.62;32.81
60228;BME280;46091;46.512;6.626;2023-06-14T10:51:50;96377.50;;;25.63;33.05
60228;BME280;46091;46.512;6.626;2023-06-14T10:53:57;96375.31;;;25.65;33.19
60228;BME280;46091;46.512;6.626;2023-06-14T10:56:06;96374.41;;;25.69;33.10
60228;BME280;46091;46.512;6.626;2023-06-14T10:58:09;96369.59;;;25.66;33.01
60228;BME280;46091;46.512;6.626;2023-06-14T11:00:14;96382.31;;;25.66;32.83
60228;BME280;46091;46.512;6.626;2023-06-14T11:04:59;96376.41;;;25.64;33.16
60228;BME280;46091;46.512;6.626;2023-06-14T11:07:26;96373.69;;;25.64;33.13
60228;BME280;46091;46.512;6.626;2023-06-14T11:12:10;96374.69;;;25.68;33.24
60228;BME280;46091;46.512;6.626;2023-06-14T11:14:14;96370.69;;;25.65;33.04
60228;BME280;46091;46.512;6.626;2023-06-14T11:16:18;96369.88;;;25.65;32.81
60228;BME280;46091;46.512;6.626;2023-06-14T11:18:21;96369.09;;;25.64;32.93
60228;BME280;46091;46.512;6.626;2023-06-14T11:20:26;96364.47;;;25.65;32.93
60228;BME280;46091;46.512;6.626;2023-06-14T11:22:29;96366.88;;;25.66;33.19
60228;BME280;46091;46.512;6.626;2023-06-14T11:24:42;96368.78;;;25.66;32.92
60228;BME280;46091;46.512;6.626;2023-06-14T11:26:47;96363.06;;;25.67;32.76
60228;BME280;46091;46.512;6.626;2023-06-14T11:28:55;96367.09;;;25.70;32.83
60228;BME280;46091;46.512;6.626;2023-06-14T11:31:03;96365.41;;;25.74;33.11
60228;BME280;46091;46.512;6.626;2023-06-14T11:33:09;96365.91;;;25.76;32.93
60228;BME280;46091;46.512;6.626;2023-06-14T11:35:13;96363.69;;;25.78;32.98
60228;BME280;46091;46.512;6.626;2023-06-14T11:37:17;96366.91;;;25.80;32.86
60228;BME280;46091;46.512;6.626;2023-06-14T11:39:24;96368.50;;;25.81;32.94
60228;BME280;46091;46.512;6.626;2023-06-14T11:41:32;96363.63;;;25.83;32.93
60228;BME280;46091;46.512;6.626;2023-06-14T11:43:35;96357.91;;;25.85;32.78
60228;BME280;46091;46.512;6.626;2023-06-14T11:45:39;96355.69;;;25.87;32.90
60228;BME280;46091;46.512;6.626;2023-06-14T11:47:42;96360.31;;;25.86;32.62
60228;BME280;46091;46.512;6.626;2023-06-14T11:49:47;96363.31;;;25.85;32.76
60228;BME280;46091;46.512;6.626;2023-06-14T11:51:53;96353.28;;;25.85;32.78
60228;BME280;46091;46.512;6.626;2023-06-14T11:53:56;96352.47;;;25.85;32.90
60228;BME280;46091;46.512;6.626;2023-06-14T11:56:00;96351.06;;;25.87;32.74
60228;BME280;46091;46.512;6.626;2023-06-14T11:58:04;96349.97;;;25.88;33.01
60228;BME280;46091;46.512;6.626;2023-06-14T12:00:09;96354.28;;;25.89;33.00
60228;BME280;46091;46.512;6.626;2023-06-14T12:02:14;96346.16;;;25.89;32.65
60228;BME280;46091;46.512;6.626;2023-06-14T12:04:23;96342.03;;;25.92;32.78
60228;BME280;46091;46.512;6.626;2023-06-14T12:06:29;96340.66;;;25.94;32.52
60228;BME280;46091;46.512;6.626;2023-06-14T12:08:36;96346.06;;;25.94;32.38
60228;BME280;46091;46.512;6.626;2023-06-14T12:10:41;96348.47;;;25.96;32.37
60228;BME280;46091;46.512;6.626;2023-06-14T12:12:45;96349.28;;;25.96;32.67
60228;BME280;46091;46.512;6.626;2023-06-14T12:14:49;96342.75;;;25.97;32.49
60228;BME280;46091;46.512;6.626;2023-06-14T12:17:04;96338.13;;;25.98;32.34
60228;BME280;46091;46.512;6.626;2023-06-14T12:19:09;96340.03;;;25.97;32.36
60228;BME280;46091;46.512;6.626;2023-06-14T12:21:15;96340.53;;;25.99;32.36
60228;BME280;46091;46.512;6.626;2023-06-14T12:23:19;96332.41;;;25.99;32.52
60228;BME280;46091;46.512;6.626;2023-06-14T12:25:29;96341.81;;;26.02;32.31
60228;BME280;46091;46.512;6.626;2023-06-14T12:27:34;96340.41;;;26.04;32.60
60228;BME280;46091;46.512;6.626;2023-06-14T12:29:38;96333.41;;;26.03;32.50
60228;BME280;46091;46.512;6.626;2023-06-14T12:31:41;96341.53;;;26.03;32.64
60228;BME280;46091;46.512;6.626;2023-06-14T12:33:44;96329.88;;;26.03;32.68
60228;BME280;46091;46.512;6.626;2023-06-14T12:35:50;96333.13;;;26.05;32.73
60228;BME280;46091;46.512;6.626;2023-06-14T12:37:56;96336.91;;;26.04;32.17
60228;BME280;46091;46.512;6.626;2023-06-14T12:40:01;96333.41;;;26.03;32.24
60228;BME280;46091;46.512;6.626;2023-06-14T12:42:07;96336.63;;;26.05;32.17
60228;BME280;46091;46.512;6.626;2023-06-14T12:44:11;96335.22;;;26.08;32.54
60228;BME280;46091;46.512;6.626;2023-06-14T12:46:14;96333.00;;;26.10;32.28
60228;BME280;46091;46.512;6.626;2023-06-14T12:48:17;96323.75;;;26.11;32.11
60228;BME280;46091;46.512;6.626;2023-06-14T12:50:20;96326.16;;;26.12;32.10
60228;BME280;46091;46.512;6.626;2023-06-14T12:52:27;96331.09;;;26.10;32.37
60228;BME280;46091;46.512;6.626;2023-06-14T12:54:30;96334.59;;;26.11;32.28
60228;BME280;46091;46.512;6.626;2023-06-14T12:56:43;96333.78;;;26.10;32.22
60228;BME280;46091;46.512;6.626;2023-06-14T12:58:46;96340.00;;;26.11;32.54
60228;BME280;46091;46.512;6.626;2023-06-14T13:00:49;96331.56;;;26.12;32.13
60228;BME280;46091;46.512;6.626;2023-06-14T13:02:52;96337.00;;;26.12;32.16
60228;BME280;46091;46.512;6.626;2023-06-14T13:04:56;96333.50;;;26.12;32.31
60228;BME280;46091;46.512;6.626;2023-06-14T13:07:00;96335.41;;;26.11;31.97
60228;BME280;46091;46.512;6.626;2023-06-14T13:09:03;96323.47;;;26.12;32.45
60228;BME280;46091;46.512;6.626;2023-06-14T13:11:06;96335.88;;;26.13;32.12
60228;BME280;46091;46.512;6.626;2023-06-14T13:13:11;96338.59;;;26.13;31.92
60228;BME280;46091;46.512;6.626;2023-06-14T13:15:15;96329.38;;;26.15;31.98
60228;BME280;46091;46.512;6.626;2023-06-14T13:17:18;96335.59;;;26.15;31.92
60228;BME280;46091;46.512;6.626;2023-06-14T13:19:21;96336.09;;;26.17;32.02
60228;BME280;46091;46.512;6.626;2023-06-14T13:21:24;96334.19;;;26.18;31.75
60228;BME280;46091;46.512;6.626;2023-06-14T13:23:27;96345.03;;;26.18;32.11
60228;BME280;46091;46.512;6.626;2023-06-14T13:25:31;96338.81;;;26.17;31.90
60228;BME280;46091;46.512;6.626;2023-06-14T13:27:34;96335.00;;;26.18;32.05
60228;BME280;46091;46.512;6.626;2023-06-14T13:29:39;96331.50;;;26.18;31.96
60228;BME280;46091;46.512;6.626;2023-06-14T13:31:41;96324.97;;;26.19;31.72
60228;BME280;46091;46.512;6.626;2023-06-14T13:33:44;96331.97;;;26.20;31.58
60228;BME280;46091;46.512;6.626;2023-06-14T13:35:47;96337.41;;;26.20;31.93
60228;BME280;46091;46.512;6.626;2023-06-14T13:37:51;96331.66;;;26.21;31.85
60228;BME280;46091;46.512;6.626;2023-06-14T13:39:54;96327.38;;;26.20;31.63
60228;BME280;46091;46.512;6.626;2023-06-14T13:41:57;96330.88;;;26.21;31.96
60228;BME280;46091;46.512;6.626;2023-06-14T13:44:00;96332.47;;;26.22;31.93
60228;BME280;46091;46.512;6.626;2023-06-14T13:46:06;96324.34;;;26.22;32.04
60228;BME280;46091;46.512;6.626;2023-06-14T13:48:09;96323.53;;;26.21;31.74
60228;BME280;46091;46.512;6.626;2023-06-14T13:50:13;96334.06;;;26.23;31.89
60228;BME280;46091;46.512;6.626;2023-06-14T13:52:17;96327.53;;;26.24;31.81
60228;BME280;46091;46.512;6.626;2023-06-14T13:54:20;96325.16;;;26.22;31.76
60228;BME280;46091;46.512;6.626;2023-06-14T13:56:24;96332.16;;;26.23;31.68
60228;BME280;46091;46.512;6.626;2023-06-14T13:58:27;96324.34;;;26.22;31.50
60228;BME280;46091;46.512;6.626;2023-06-14T14:00:30;96324.03;;;26.23;31.78
60228;BME280;46091;46.512;6.626;2023-06-14T14:02:35;96323.25;;;26.23;31.76
60228;BME280;46091;46.512;6.626;2023-06-14T14:04:38;96322.13;;;26.24;31.59
60228;BME280;46091;46.512;6.626;2023-06-14T14:06:42;96322.13;;;26.24;31.69
60228;BME280;46091;46.512;6.626;2023-06-14T14:08:46;96324.75;;;26.29;31.71
60228;BME280;46091;46.512;6.626;2023-06-14T14:10:51;96333.38;;;26.31;31.65
60228;BME280;46091;46.512;6.626;2023-06-14T14:12:55;96327.31;;;26.34;31.85
60228;BME280;46091;46.512;6.626;2023-06-14T14:14:58;96326.22;;;26.35;31.47
60228;BME280;46091;46.512;6.626;2023-06-14T14:17:01;96321.91;;;26.34;31.44
60228;BME280;46091;46.512;6.626;2023-06-14T14:19:06;96322.72;;;26.34;31.96
60228;BME280;46091;46.512;6.626;2023-06-14T14:21:08;96335.16;;;26.35;31.98
60228;BME280;46091;46.512;6.626;2023-06-14T14:23:14;96327.31;;;26.34;31.90
60228;BME280;46091;46.512;6.626;2023-06-14T14:25:17;96328.94;;;26.35;31.75
60228;BME280;46091;46.512;6.626;2023-06-14T14:27:21;96328.94;;;26.35;31.43
60228;BME280;46091;46.512;6.626;2023-06-14T14:29:23;96333.25;;;26.36;31.64
60228;BME280;46091;46.512;6.626;2023-06-14T14:31:28;96322.72;;;26.34;31.38
60228;BME280;46091;46.512;6.626;2023-06-14T14:33:31;96320.00;;;26.34;31.33
60228;BME280;46091;46.512;6.626;2023-06-14T14:35:38;96325.72;;;26.33;31.24
60228;BME280;46091;46.512;6.626;2023-06-14T14:37:41;96320.78;;;26.35;31.26
60228;BME280;46091;46.512;6.626;2023-06-14T14:39:44;96331.34;;;26.36;30.92
60228;BME280;46091;46.512;6.626;2023-06-14T14:41:47;96321.84;;;26.39;31.13
60228;BME280;46091;46.512;6.626;2023-06-14T14:43:50;96309.09;;;26.39;30.70
60228;BME280;46091;46.512;6.626;2023-06-14T14:45:53;96305.44;;;26.44;29.94
60228;BME280;46091;46.512;6.626;2023-06-14T14:47:56;96307.53;;;26.47;29.88
60228;BME280;46091;46.512;6.626;2023-06-14T14:49:59;96312.34;;;26.50;29.53
60228;BME280;46091;46.512;6.626;2023-06-14T14:52:03;96307.75;;;26.51;29.36
60228;BME280;46091;46.512;6.626;2023-06-14T14:54:23;96301.50;;;26.50;29.75
60228;BME280;46091;46.512;6.626;2023-06-14T14:56:27;96311.84;;;26.48;29.49
60228;BME280;46091;46.512;6.626;2023-06-14T14:58:29;96318.88;;;26.49;29.15
60228;BME280;46091;46.512;6.626;2023-06-14T15:00:32;96311.03;;;26.48;29.19
60228;BME280;46091;46.512;6.626;2023-06-14T15:02:36;96315.66;;;26.47;29.43
60228;BME280;46091;46.512;6.626;2023-06-14T15:04:39;96315.66;;;26.47;29.34
60228;BME280;46091;46.512;6.626;2023-06-14T15:06:42;96319.97;;;26.48;29.04
60228;BME280;46091;46.512;6.626;2023-06-14T15:08:46;96306.44;;;26.48;29.04
60228;BME280;46091;46.512;6.626;2023-06-14T15:10:49;96304.81;;;26.47;29.20